createdAt,value
2023-04-07T00:07:24.298Z,15.93
2023-04-07T00:17:25.865Z,15.03
2023-04-07T00:27:27.374Z,15.45
2023-04-07T00:37:28.887Z,17.07
2023-04-07T00:47:30.381Z,17.30
2023-04-07T00:57:31.781Z,16.10
2023-04-07T01:07:39.894Z,16.13
2023-04-07T01:17:48.403Z,16.00
2023-04-07T01:27:52.994Z,15.75
2023-04-07T01:37:56.023Z,11.70
2023-04-07T01:47:58.075Z,13.77
2023-04-07T01:58:04.557Z,14.60
2023-04-07T02:08:08.716Z,17.00
2023-04-07T02:18:12.756Z,17.07
2023-04-07T02:28:14.275Z,17.13
2023-04-07T02:38:15.942Z,16.42
2023-04-07T02:48:17.451Z,14.60
2023-04-07T02:58:18.930Z,15.90
2023-04-07T03:08:20.570Z,15.73
2023-04-07T03:18:21.978Z,14.02
2023-04-07T03:28:23.563Z,12.53
2023-04-07T03:38:26.234Z,13.07
2023-04-07T03:48:29.281Z,10.52
2023-04-07T03:58:30.880Z,7.87
2023-04-07T04:08:32.371Z,11.13
2023-04-07T04:18:33.746Z,11.15
2023-04-07T04:28:35.250Z,10.77
2023-04-07T04:38:36.834Z,8.73
2023-04-07T04:48:38.313Z,9.20
2023-04-07T04:58:46.797Z,8.15
2023-04-07T05:08:48.317Z,8.87
2023-04-07T05:18:49.771Z,8.43
2023-04-07T05:28:51.129Z,8.35
2023-04-07T05:38:52.630Z,6.63
2023-04-07T05:48:54.022Z,6.60
2023-04-07T05:58:56.201Z,6.03
2023-04-07T06:08:57.748Z,5.70
2023-04-07T06:18:59.263Z,5.73
2023-04-07T06:29:00.835Z,7.60
2023-04-07T06:39:02.291Z,8.50
2023-04-07T06:49:04.015Z,9.67
2023-04-07T06:59:05.518Z,9.70
2023-04-07T07:09:06.859Z,8.43
2023-04-07T07:19:08.245Z,9.77
2023-04-07T07:29:09.637Z,8.43
2023-04-07T07:39:11.253Z,7.82
2023-04-07T07:49:12.761Z,8.70
2023-04-07T07:59:15.190Z,8.53
2023-04-07T08:09:19.018Z,7.85
2023-04-07T08:19:20.604Z,7.70
2023-04-07T08:29:22.069Z,6.40
2023-04-07T08:39:25.413Z,8.30
2023-04-07T08:49:29.676Z,7.80
2023-04-07T08:59:33.648Z,6.87
2023-04-07T09:09:35.625Z,6.50
2023-04-07T09:19:37.264Z,6.00
2023-04-07T09:29:40.342Z,6.47
2023-04-07T09:39:50.599Z,7.90
2023-04-07T09:49:54.182Z,8.40
2023-04-07T09:59:57.226Z,6.55
2023-04-07T10:09:58.665Z,6.90
2023-04-07T10:20:01.658Z,7.50
2023-04-07T10:30:05.217Z,6.82
2023-04-07T10:40:18.981Z,7.57
2023-04-07T10:50:22.855Z,6.13
2023-04-07T11:00:24.485Z,5.40
2023-04-07T11:10:26.297Z,5.20
2023-04-07T11:20:47.347Z,5.20
2023-04-07T11:30:53.927Z,4.88
2023-04-07T11:40:57.183Z,4.38
2023-04-07T11:50:59.918Z,5.07
2023-04-07T12:01:06.680Z,6.10
2023-04-07T12:11:09.350Z,6.65
2023-04-07T12:21:10.741Z,6.23
2023-04-07T12:31:12.321Z,7.07
2023-04-07T12:41:13.768Z,5.30
2023-04-07T12:51:15.346Z,7.70
2023-04-07T13:01:17.132Z,9.10
2023-04-07T13:11:18.790Z,8.07
2023-04-07T13:21:43.758Z,8.02
2023-04-07T13:31:41.616Z,8.90
2023-04-07T13:41:43.103Z,8.23
2023-04-07T13:51:44.474Z,7.82
2023-04-07T14:01:45.984Z,7.20
2023-04-07T14:11:48.400Z,5.30
2023-04-07T14:21:53.513Z,5.47
2023-04-07T14:31:54.899Z,6.97
2023-04-07T14:41:56.472Z,6.93
2023-04-07T14:51:58.884Z,8.55
2023-04-07T15:02:00.398Z,8.75
2023-04-07T15:12:02.221Z,8.77
2023-04-07T15:22:03.941Z,10.33
2023-04-07T15:32:05.658Z,9.48
2023-04-07T15:42:12.550Z,9.33
2023-04-07T15:52:14.018Z,8.07
2023-04-07T16:02:15.687Z,6.43
2023-04-07T16:12:18.438Z,4.97
2023-04-07T16:22:19.779Z,5.23
2023-04-07T16:32:21.234Z,5.30
2023-04-07T16:42:25.533Z,5.18
2023-04-07T16:52:27.014Z,5.60
2023-04-07T17:02:28.617Z,5.80
2023-04-07T17:12:30.250Z,5.50
2023-04-07T17:22:31.741Z,7.13
2023-04-07T17:32:33.138Z,6.67
2023-04-07T17:42:34.636Z,7.53
2023-04-07T17:52:36.106Z,7.37
2023-04-07T18:02:40.127Z,7.37
2023-04-07T18:12:41.835Z,7.72
2023-04-07T18:22:43.964Z,6.85
2023-04-07T18:32:46.574Z,9.37
2023-04-07T18:42:48.144Z,9.30
2023-04-07T18:52:49.732Z,8.18
2023-04-07T19:02:51.476Z,8.07
2023-04-07T19:12:52.958Z,7.30
2023-04-07T19:22:54.356Z,8.27
2023-04-07T19:32:56.562Z,8.30
2023-04-07T19:42:58.125Z,7.93
2023-04-07T19:52:59.515Z,8.43
2023-04-07T20:03:01.107Z,7.40
2023-04-07T20:13:03.779Z,8.07
2023-04-07T20:23:06.538Z,7.70
2023-04-07T20:33:08.180Z,8.75
2023-04-07T20:43:10.028Z,9.00
2023-04-07T20:53:11.429Z,9.20
2023-04-07T21:03:13.581Z,9.65
2023-04-07T21:13:15.702Z,10.60
2023-04-07T21:23:17.070Z,10.33
2023-04-07T21:33:18.436Z,10.45
2023-04-07T21:43:19.816Z,12.35
2023-04-07T21:53:21.500Z,11.07
2023-04-07T22:03:23.586Z,10.03
2023-04-07T22:13:25.380Z,10.98
2023-04-07T22:23:27.837Z,11.43
2023-04-07T22:33:29.288Z,10.97
2023-04-07T22:43:30.881Z,11.60
2023-04-07T22:53:32.485Z,12.23
2023-04-07T23:03:33.944Z,12.00
2023-04-07T23:13:35.487Z,11.57
2023-04-07T23:23:38.949Z,11.27
2023-04-07T23:33:40.472Z,11.53
2023-04-07T23:43:41.847Z,12.33
2023-04-07T23:53:43.239Z,11.50
